Time;durP1;ratioP1;P1;durP2;ratioP2;P2;SDS_P1;SDS_P2;PMS_P1;PMS_P2;Temp;Humidity;BMP_temperature;BMP_pressure;BME280_temperature;BME280_humidity;BME280_pressure;Samples;Min_cycle;Max_cycle;Signal;HPM_P1;HPM_P2
2023/12/12 00:01:54;;;;;;;4.93;2.83;;;10.40;87.90;;;;;;5067971;28;20513;-69
2023/12/12 00:04:19;;;;;;;6.10;2.50;;;10.40;88.00;;;;;;5065676;28;20032;-69
2023/12/12 00:06:45;;;;;;;6.15;2.45;;;10.40;87.90;;;;;;5070258;28;20094;-69
2023/12/12 00:09:11;;;;;;;3.67;1.55;;;10.50;87.90;;;;;;5068422;28;20029;-69
2023/12/12 00:11:36;;;;;;;3.03;1.73;;;10.50;87.90;;;;;;5063775;28;20056;-59
2023/12/12 00:14:02;;;;;;;2.80;2.05;;;10.50;87.70;;;;;;5070783;28;20051;-59
2023/12/12 00:16:28;;;;;;;5.50;2.13;;;10.50;87.60;;;;;;5070624;28;20063;-69
2023/12/12 00:18:54;;;;;;;10.13;2.35;;;10.40;87.70;;;;;;5070519;28;20039;-69
2023/12/12 00:21:19;;;;;;;9.35;2.17;;;10.40;87.70;;;;;;5046853;28;20045;-61
2023/12/12 00:23:45;;;;;;;1.60;1.15;;;10.40;87.80;;;;;;5049116;28;20480;-59
2023/12/12 00:26:12;;;;;;;3.60;2.10;;;10.40;87.90;;;;;;5068856;28;20033;-59
2023/12/12 00:28:39;;;;;;;5.95;2.53;;;10.40;87.80;;;;;;5069783;28;20040;-59
2023/12/12 00:31:05;;;;;;;5.20;2.00;;;10.40;87.80;;;;;;5064003;28;20082;-59
2023/12/12 00:33:31;;;;;;;4.95;2.03;;;10.40;87.80;;;;;;5069859;28;20040;-59
2023/12/12 00:35:59;;;;;;;4.30;2.40;;;10.40;88.30;;;;;;5069708;28;20025;-59
2023/12/12 00:38:28;;;;;;;5.60;1.85;;;10.50;87.70;;;;;;5070795;28;20071;-59
2023/12/12 00:40:55;;;;;;;6.43;2.22;;;10.50;87.70;;;;;;5067190;28;20998;-59
2023/12/12 00:43:22;;;;;;;9.52;1.90;;;10.50;87.70;;;;;;5070056;28;20032;-59
2023/12/12 00:45:48;;;;;;;7.07;2.30;;;10.50;87.70;;;;;;5068127;28;20034;-59
2023/12/12 00:48:14;;;;;;;3.53;1.88;;;10.50;87.60;;;;;;5070463;28;20032;-59
2023/12/12 00:50:40;;;;;;;2.30;1.55;;;10.50;87.50;;;;;;5070072;28;20487;-59
2023/12/12 00:53:05;;;;;;;5.40;1.73;;;10.50;87.50;;;;;;5044044;28;20061;-59
2023/12/12 00:55:31;;;;;;;3.35;1.85;;;10.50;87.50;;;;;;5068769;28;20142;-59
2023/12/12 00:57:57;;;;;;;1.85;1.48;;;10.50;87.50;;;;;;5070263;28;20016;-59
2023/12/12 01:00:22;;;;;;;2.58;1.85;;;10.50;87.40;;;;;;5069620;28;20033;-59
2023/12/12 01:02:49;;;;;;;3.28;1.77;;;10.60;87.40;;;;;;5048404;28;20407;-59
2023/12/12 01:05:15;;;;;;;7.78;2.25;;;10.50;87.40;;;;;;5055719;28;20052;-69
2023/12/12 01:07:49;;;;;;;2.33;2.10;;;10.50;87.30;;;;;;5070886;28;20820;-68
2023/12/12 01:10:15;;;;;;;5.80;2.15;;;10.40;87.30;;;;;;5070916;28;20028;-68
2023/12/12 01:12:40;;;;;;;3.47;2.47;;;10.40;87.40;;;;;;5065546;28;20025;-68
2023/12/12 01:15:07;;;;;;;6.53;2.63;;;10.40;87.40;;;;;;5072297;28;20090;-69
2023/12/12 01:17:33;;;;;;;4.78;2.15;;;10.30;87.40;;;;;;5071039;28;20044;-69
2023/12/12 01:19:59;;;;;;;2.72;1.60;;;10.30;87.50;;;;;;5073946;28;20079;-68
2023/12/12 01:22:24;;;;;;;3.10;1.63;;;10.20;87.50;;;;;;5079378;28;20028;-68
2023/12/12 01:24:50;;;;;;;3.35;1.98;;;10.20;87.50;;;;;;5067920;28;20373;-68
2023/12/12 01:27:16;;;;;;;2.15;1.67;;;10.20;87.50;;;;;;5069280;28;20063;-68
2023/12/12 01:29:41;;;;;;;2.83;1.60;;;10.10;87.50;;;;;;5077638;28;20499;-68
2023/12/12 01:32:07;;;;;;;5.28;2.03;;;10.10;87.40;;;;;;5069714;28;20304;-69
2023/12/12 01:34:33;;;;;;;3.70;2.05;;;10.10;87.50;;;;;;5068625;28;20032;-68
2023/12/12 01:36:59;;;;;;;4.95;2.47;;;10.00;87.40;;;;;;5065049;28;20037;-68
2023/12/12 01:39:25;;;;;;;7.00;2.45;;;10.00;87.50;;;;;;5075622;28;20394;-58
2023/12/12 01:41:50;;;;;;;3.53;1.70;;;9.90;87.50;;;;;;5077024;28;20427;-58
2023/12/12 01:44:16;;;;;;;5.28;1.95;;;9.80;87.50;;;;;;5074187;28;20028;-68
2023/12/12 01:46:47;;;;;;;5.82;1.90;;;9.80;87.60;;;;;;5072253;28;20028;-69
2023/12/12 01:49:16;;;;;;;5.90;2.40;;;9.80;87.60;;;;;;5076597;28;20460;-68
2023/12/12 01:51:42;;;;;;;2.80;1.83;;;9.80;87.50;;;;;;5069350;28;20037;-58
2023/12/12 01:54:09;;;;;;;3.85;2.03;;;9.80;88.10;;;;;;5065450;28;20039;-58
2023/12/12 01:56:36;;;;;;;4.88;1.75;;;9.70;87.50;;;;;;5071746;28;20040;-69
2023/12/12 01:59:02;;;;;;;2.60;1.75;;;9.70;87.50;;;;;;5076993;28;20099;-58
2023/12/12 02:01:28;;;;;;;4.82;2.05;;;9.70;87.40;;;;;;5068193;28;20025;-68
2023/12/12 02:03:56;;;;;;;1.95;1.75;;;9.70;87.40;;;;;;5071829;28;20407;-68
2023/12/12 02:06:25;;;;;;;2.10;1.63;;;9.70;87.30;;;;;;5060521;28;20095;-68
2023/12/12 02:08:54;;;;;;;3.92;2.05;;;9.70;87.30;;;;;;5069402;28;20029;-68
2023/12/12 02:11:21;;;;;;;3.20;1.65;;;9.70;87.10;;;;;;5064310;28;20112;-68
2023/12/12 02:13:48;;;;;;;2.22;1.67;;;9.60;87.10;;;;;;5070595;28;20362;-68
2023/12/12 02:16:14;;;;;;;2.60;1.77;;;9.60;87.10;;;;;;5068881;28;20028;-68
2023/12/12 02:18:40;;;;;;;2.75;1.70;;;9.60;87.10;;;;;;5052713;28;20045;-68
2023/12/12 02:21:06;;;;;;;4.57;2.53;;;9.50;87.00;;;;;;5056217;28;20108;-68
2023/12/12 02:23:32;;;;;;;2.75;1.27;;;9.50;87.00;;;;;;5056985;28;20112;-68
2023/12/12 02:26:02;;;;;;;2.83;1.42;;;9.50;87.00;;;;;;5063318;28;20079;-68
2023/12/12 02:28:29;;;;;;;1.45;1.00;;;9.40;86.80;;;;;;5050983;28;20029;-68
2023/12/12 02:30:55;;;;;;;2.10;1.00;;;9.40;86.70;;;;;;5057902;28;20037;-68
2023/12/12 02:33:21;;;;;;;2.83;1.48;;;9.30;86.50;;;;;;5058849;28;20025;-68
2023/12/12 02:35:46;;;;;;;2.67;1.60;;;9.30;86.40;;;;;;5055658;28;20032;-69
2023/12/12 02:38:13;;;;;;;5.38;1.55;;;9.20;86.20;;;;;;5051220;28;20132;-69
2023/12/12 02:40:39;;;;;;;4.10;1.08;;;9.10;86.10;;;;;;5055281;28;20060;-69
2023/12/12 02:43:05;;;;;;;1.58;1.20;;;9.10;85.90;;;;;;5057051;28;20063;-69
2023/12/12 02:45:31;;;;;;;1.73;1.25;;;9.00;85.80;;;;;;5049910;28;20056;-69
2023/12/12 02:47:56;;;;;;;6.50;1.77;;;8.90;85.50;;;;;;5060541;28;20518;-69
2023/12/12 02:50:22;;;;;;;3.60;1.83;;;8.80;85.30;;;;;;5053978;28;20052;-69
2023/12/12 02:52:48;;;;;;;3.90;1.45;;;8.80;85.20;;;;;;5055452;28;20059;-69
2023/12/12 02:55:14;;;;;;;4.03;2.13;;;8.70;85.30;;;;;;5052498;28;20109;-59
2023/12/12 02:57:39;;;;;;;3.10;1.75;;;8.60;85.40;;;;;;5051415;28;20499;-59
2023/12/12 03:00:06;;;;;;;3.65;2.08;;;8.60;85.60;;;;;;5057795;28;20195;-59
2023/12/12 03:02:33;;;;;;;7.80;2.55;;;8.70;85.70;;;;;;5053367;28;20033;-59
2023/12/12 03:04:59;;;;;;;3.03;1.60;;;8.70;85.70;;;;;;5052365;28;20037;-59
2023/12/12 03:07:25;;;;;;;2.47;1.50;;;8.70;85.60;;;;;;5060811;28;20068;-60
2023/12/12 03:09:50;;;;;;;2.25;2.05;;;8.80;85.50;;;;;;5042267;28;20024;-59
2023/12/12 03:12:16;;;;;;;2.85;1.35;;;8.70;85.30;;;;;;5054277;28;20048;-59
2023/12/12 03:14:42;;;;;;;3.67;2.25;;;8.70;85.30;;;;;;5054034;28;20021;-59
2023/12/12 03:17:08;;;;;;;4.30;2.22;;;8.70;85.20;;;;;;5051543;28;20032;-59
2023/12/12 03:19:34;;;;;;;3.67;1.75;;;8.60;85.20;;;;;;5055561;28;20033;-59
2023/12/12 03:22:00;;;;;;;3.08;2.10;;;8.60;85.30;;;;;;5055540;28;20055;-59
2023/12/12 03:24:26;;;;;;;3.42;2.00;;;8.60;85.40;;;;;;5060094;28;20037;-60
2023/12/12 03:26:51;;;;;;;3.60;1.67;;;8.60;85.20;;;;;;5058630;28;20033;-60
2023/12/12 03:29:17;;;;;;;2.85;1.95;;;8.50;85.20;;;;;;5056653;28;20419;-59
2023/12/12 03:31:43;;;;;;;5.32;2.38;;;8.50;85.10;;;;;;5057606;28;20033;-59
2023/12/12 03:34:09;;;;;;;3.00;1.77;;;8.50;85.00;;;;;;5060312;28;20378;-59
2023/12/12 03:36:35;;;;;;;5.40;1.83;;;8.50;84.90;;;;;;5057333;28;20027;-59
2023/12/12 03:39:02;;;;;;;7.88;3.30;;;8.40;84.70;;;;;;5055629;28;20166;-59
2023/12/12 03:41:30;;;;;;;2.00;1.30;;;8.30;84.70;;;;;;5054984;28;20033;-59
2023/12/12 03:43:56;;;;;;;2.40;1.67;;;8.30;84.80;;;;;;5053336;28;20037;-69
2023/12/12 03:46:22;;;;;;;2.80;1.77;;;8.20;84.60;;;;;;5058462;28;20112;-69
2023/12/12 03:48:47;;;;;;;5.13;2.13;;;8.20;84.60;;;;;;5049033;28;20033;-69
2023/12/12 03:51:13;;;;;;;2.08;1.58;;;8.20;84.60;;;;;;5048789;28;20514;-69
2023/12/12 03:53:39;;;;;;;2.60;1.70;;;8.10;84.50;;;;;;5038324;28;20451;-69
2023/12/12 03:56:06;;;;;;;2.05;1.65;;;8.10;84.40;;;;;;5056832;28;20115;-69
2023/12/12 03:58:32;;;;;;;2.10;1.88;;;8.10;84.30;;;;;;5058733;28;20534;-69
2023/12/12 04:00:58;;;;;;;2.17;1.95;;;8.00;84.20;;;;;;5052467;28;20024;-69
2023/12/12 04:03:24;;;;;;;2.72;1.92;;;8.00;84.10;;;;;;5053188;28;20037;-69
2023/12/12 04:05:50;;;;;;;2.95;1.98;;;8.00;84.20;;;;;;5054615;28;20074;-69
2023/12/12 04:08:16;;;;;;;2.58;1.55;;;8.00;84.10;;;;;;5060340;28;20025;-69
2023/12/12 04:10:41;;;;;;;2.67;1.77;;;7.90;83.80;;;;;;5049472;28;20123;-69
2023/12/12 04:13:07;;;;;;;2.40;2.00;;;7.80;83.60;;;;;;5057154;28;20045;-69
2023/12/12 04:15:33;;;;;;;2.70;1.75;;;7.80;83.60;;;;;;5048238;28;20140;-69
2023/12/12 04:17:59;;;;;;;2.30;1.58;;;7.70;83.50;;;;;;5060139;28;20024;-69
2023/12/12 04:20:25;;;;;;;3.83;1.73;;;7.70;83.60;;;;;;5059969;28;20188;-69
2023/12/12 04:22:50;;;;;;;2.97;2.03;;;7.70;83.50;;;;;;5051624;28;20033;-69
2023/12/12 04:25:16;;;;;;;2.70;1.77;;;7.60;83.50;;;;;;5052166;28;20024;-69
2023/12/12 04:27:42;;;;;;;3.80;2.22;;;7.60;83.30;;;;;;5049069;28;20029;-69
2023/12/12 04:30:11;;;;;;;2.00;1.60;;;7.60;83.30;;;;;;5063347;28;20525;-59
2023/12/12 04:32:37;;;;;;;4.22;1.52;;;7.50;83.30;;;;;;5054366;28;20472;-59
2023/12/12 04:35:09;;;;;;;1.67;1.48;;;7.50;83.40;;;;;;5091366;28;20094;-59
2023/12/12 04:37:35;;;;;;;3.22;1.85;;;7.50;83.30;;;;;;5053945;28;20052;-59
2023/12/12 04:40:01;;;;;;;2.78;2.13;;;7.60;83.20;;;;;;5051538;28;20060;-59
2023/12/12 04:42:26;;;;;;;2.22;1.92;;;7.50;83.20;;;;;;5048098;28;20514;-59
2023/12/12 04:44:52;;;;;;;1.70;1.60;;;7.50;83.20;;;;;;5050930;28;20025;-59
2023/12/12 04:47:18;;;;;;;1.77;1.58;;;7.50;83.00;;;;;;5051248;28;20468;-59
2023/12/12 04:49:44;;;;;;;3.22;2.05;;;7.50;83.00;;;;;;5054769;28;20033;-59
2023/12/12 04:52:09;;;;;;;2.95;2.30;;;7.50;83.00;;;;;;5055960;28;20040;-59
2023/12/12 04:54:35;;;;;;;3.40;1.63;;;7.50;83.60;;;;;;5048979;28;20023;-59
2023/12/12 04:57:01;;;;;;;3.38;1.98;;;7.60;83.00;;;;;;5052571;28;20036;-59
2023/12/12 04:59:27;;;;;;;2.95;2.22;;;7.60;82.90;;;;;;5056630;28;20025;-70
2023/12/12 05:01:53;;;;;;;20.38;2.53;;;7.60;82.90;;;;;;5044703;28;20037;-69
2023/12/12 05:04:18;;;;;;;4.80;2.35;;;7.60;83.00;;;;;;5053364;28;20392;-69
2023/12/12 05:06:44;;;;;;;4.88;2.03;;;7.60;83.00;;;;;;5040552;28;20045;-69
2023/12/12 05:09:10;;;;;;;6.05;2.13;;;7.70;83.00;;;;;;5053133;28;20037;-69
2023/12/12 05:11:36;;;;;;;3.78;2.17;;;7.70;82.90;;;;;;5047662;28;20082;-69
2023/12/12 05:14:04;;;;;;;2.33;1.80;;;7.70;82.90;;;;;;5053380;28;20396;-69
2023/12/12 05:16:30;;;;;;;6.28;2.50;;;7.70;82.90;;;;;;5049075;28;20531;-69
2023/12/12 05:18:56;;;;;;;2.72;2.25;;;7.70;83.00;;;;;;5057454;28;20033;-69
2023/12/12 05:21:22;;;;;;;3.08;2.20;;;7.70;83.00;;;;;;5053405;28;20104;-69
2023/12/12 05:23:49;;;;;;;1.90;1.67;;;7.70;83.10;;;;;;5057537;28;20395;-69
2023/12/12 05:26:15;;;;;;;4.10;2.25;;;7.60;83.00;;;;;;5049540;28;20020;-69
2023/12/12 05:28:41;;;;;;;2.25;1.80;;;7.70;83.00;;;;;;5057241;28;20079;-69
2023/12/12 05:31:07;;;;;;;2.10;1.58;;;7.60;83.00;;;;;;5047194;28;20050;-69
2023/12/12 05:33:33;;;;;;;5.93;2.17;;;7.60;83.10;;;;;;5049263;28;20029;-69
2023/12/12 05:35:59;;;;;;;2.28;1.90;;;7.60;83.20;;;;;;5052755;28;20044;-69
2023/12/12 05:38:25;;;;;;;3.67;2.22;;;7.50;83.20;;;;;;5053396;28;20423;-69
2023/12/12 05:40:50;;;;;;;2.50;1.42;;;7.50;83.10;;;;;;5051011;28;20025;-59
2023/12/12 05:43:16;;;;;;;1.77;1.65;;;7.50;83.10;;;;;;5051304;28;20436;-59
2023/12/12 05:45:42;;;;;;;2.25;1.98;;;7.50;83.00;;;;;;5050680;28;20400;-59
2023/12/12 05:48:08;;;;;;;2.85;2.03;;;7.40;82.80;;;;;;5042944;28;20079;-59
2023/12/12 05:50:34;;;;;;;4.30;1.90;;;7.40;82.90;;;;;;5049239;28;20079;-59
2023/12/12 05:53:00;;;;;;;2.42;1.70;;;7.40;83.00;;;;;;5061305;28;20044;-59
2023/12/12 05:55:27;;;;;;;2.42;1.88;;;7.40;83.10;;;;;;5061355;28;20028;-59
2023/12/12 05:57:52;;;;;;;3.45;2.28;;;7.40;83.50;;;;;;5054580;28;20555;-59
2023/12/12 06:00:18;;;;;;;2.58;2.22;;;7.40;82.90;;;;;;5058335;28;20115;-69
2023/12/12 06:02:44;;;;;;;1.88;1.60;;;7.40;82.90;;;;;;5045891;28;20033;-69
2023/12/12 06:05:10;;;;;;;2.00;1.63;;;7.40;82.90;;;;;;5059037;28;20029;-69
2023/12/12 06:07:37;;;;;;;2.83;1.67;;;7.40;82.80;;;;;;5056806;28;20043;-68
2023/12/12 06:10:06;;;;;;;2.72;1.77;;;7.30;82.70;;;;;;5053857;28;20033;-69
2023/12/12 06:12:32;;;;;;;3.55;2.33;;;7.30;82.80;;;;;;5055582;28;20020;-69
2023/12/12 06:14:57;;;;;;;6.43;2.97;;;7.30;82.70;;;;;;5060463;28;20025;-68
2023/12/12 06:17:23;;;;;;;4.53;1.80;;;7.20;82.90;;;;;;5058086;28;20143;-68
2023/12/12 06:19:49;;;;;;;2.83;2.28;;;7.30;83.10;;;;;;5057134;28;20483;-70
2023/12/12 06:22:15;;;;;;;3.88;2.65;;;7.30;83.00;;;;;;5053901;28;20032;-68
2023/12/12 06:24:41;;;;;;;4.78;2.25;;;7.30;83.10;;;;;;5050936;28;20051;-68
2023/12/12 06:27:07;;;;;;;4.25;2.28;;;7.30;83.20;;;;;;5054843;28;20502;-68
2023/12/12 06:29:32;;;;;;;9.40;2.38;;;7.40;83.20;;;;;;5061360;28;20074;-68
2023/12/12 06:31:58;;;;;;;5.35;2.83;;;7.40;83.30;;;;;;5059157;28;20029;-68
2023/12/12 06:34:24;;;;;;;5.18;2.25;;;7.40;83.40;;;;;;5055004;28;20395;-68
2023/12/12 06:36:49;;;;;;;8.00;2.85;;;7.50;83.60;;;;;;5060186;28;20105;-58
2023/12/12 06:39:15;;;;;;;3.97;2.85;;;7.60;83.60;;;;;;5056460;28;20399;-59
2023/12/12 06:41:41;;;;;;;4.47;2.30;;;7.60;83.60;;;;;;5053423;28;20037;-59
2023/12/12 06:44:06;;;;;;;5.20;2.38;;;7.70;83.70;;;;;;5058156;28;20590;-58
2023/12/12 06:46:32;;;;;;;6.95;3.03;;;7.70;83.90;;;;;;5056861;28;20097;-58
2023/12/12 06:48:58;;;;;;;9.10;2.97;;;7.70;83.90;;;;;;5055884;28;20321;-59
2023/12/12 06:51:23;;;;;;;6.45;2.20;;;7.70;84.10;;;;;;5065075;28;20090;-58
2023/12/12 06:53:52;;;;;;;6.00;2.55;;;7.80;84.10;;;;;;5062404;28;20111;-69
2023/12/12 06:56:19;;;;;;;6.50;2.63;;;7.80;84.10;;;;;;5057223;28;20036;-59
2023/12/12 06:58:46;;;;;;;8.43;2.45;;;7.90;84.10;;;;;;5062436;28;20033;-59
2023/12/12 07:01:13;;;;;;;8.23;2.65;;;8.00;84.20;;;;;;5060657;28;20028;-59
2023/12/12 07:03:38;;;;;;;6.18;2.58;;;8.00;84.10;;;;;;5056585;28;20400;-58
2023/12/12 07:06:06;;;;;;;7.97;3.60;;;8.00;84.10;;;;;;5052920;28;20086;-59
2023/12/12 07:08:32;;;;;;;6.18;2.72;;;8.10;84.30;;;;;;5052975;28;20025;-59
2023/12/12 07:10:58;;;;;;;8.50;3.15;;;8.10;84.40;;;;;;5055528;28;20021;-59
2023/12/12 07:13:23;;;;;;;10.57;2.85;;;8.20;84.80;;;;;;5061857;28;20106;-68
2023/12/12 07:15:49;;;;;;;5.45;2.85;;;8.20;84.50;;;;;;5054112;28;20288;-68
2023/12/12 07:18:15;;;;;;;18.88;3.25;;;8.20;84.50;;;;;;5063594;28;20113;-68
2023/12/12 07:20:41;;;;;;;9.00;4.18;;;8.30;84.60;;;;;;5055965;28;20025;-68
2023/12/12 07:23:07;;;;;;;19.58;3.88;;;8.30;84.50;;;;;;5062435;28;20099;-68
2023/12/12 07:25:34;;;;;;;7.53;3.22;;;8.40;84.60;;;;;;5059822;28;20025;-68
2023/12/12 07:28:00;;;;;;;6.63;3.22;;;8.40;84.70;;;;;;5053897;28;20073;-68
2023/12/12 07:30:27;;;;;;;4.88;2.70;;;8.40;84.70;;;;;;5049907;28;20064;-68
2023/12/12 07:32:56;;;;;;;16.98;3.95;;;8.50;84.80;;;;;;5041659;28;20025;-69
2023/12/12 07:35:23;;;;;;;7.15;3.35;;;8.50;84.80;;;;;;5055029;28;20501;-58
2023/12/12 07:37:48;;;;;;;4.80;2.95;;;8.50;84.90;;;;;;5054725;28;20110;-59
2023/12/12 07:40:14;;;;;;;7.35;2.92;;;8.50;84.90;;;;;;5047765;28;20060;-59
2023/12/12 07:42:40;;;;;;;5.78;2.72;;;8.50;84.90;;;;;;5048373;28;20044;-59
2023/12/12 07:45:07;;;;;;;4.25;2.67;;;8.50;85.10;;;;;;5048939;28;20025;-58
2023/12/12 07:47:33;;;;;;;13.40;3.17;;;8.50;85.10;;;;;;5058504;28;20127;-59
2023/12/12 07:49:59;;;;;;;3.72;3.05;;;8.60;85.20;;;;;;5041739;28;20029;-58
2023/12/12 07:52:25;;;;;;;3.47;2.75;;;8.60;85.20;;;;;;5049846;28;20041;-59
2023/12/12 07:54:51;;;;;;;12.90;3.38;;;8.70;85.30;;;;;;5057221;28;20056;-69
2023/12/12 07:57:17;;;;;;;10.23;3.63;;;8.70;85.20;;;;;;5044483;28;20492;-68
2023/12/12 07:59:43;;;;;;;5.10;2.83;;;8.70;85.30;;;;;;5060599;28;20051;-69
2023/12/12 08:02:09;;;;;;;6.20;3.25;;;8.70;85.30;;;;;;5059438;28;20114;-68
2023/12/12 08:04:35;;;;;;;7.65;3.72;;;8.80;85.30;;;;;;5056014;28;20491;-68
2023/12/12 08:07:01;;;;;;;5.20;2.92;;;8.80;85.30;;;;;;5056900;28;20052;-59
2023/12/12 08:09:29;;;;;;;7.07;3.60;;;8.80;85.30;;;;;;5061657;28;20025;-58
2023/12/12 08:11:55;;;;;;;5.78;2.88;;;8.90;85.30;;;;;;5054347;28;20021;-59
2023/12/12 08:14:21;;;;;;;5.88;3.13;;;8.90;85.20;;;;;;5054895;28;20051;-68
2023/12/12 08:16:47;;;;;;;3.95;2.40;;;8.90;85.20;;;;;;5055223;28;20484;-68
2023/12/12 08:19:13;;;;;;;5.97;3.13;;;9.00;85.30;;;;;;5058846;28;20036;-69
2023/12/12 08:21:40;;;;;;;9.73;3.53;;;9.00;85.20;;;;;;5035662;28;20033;-68
2023/12/12 08:24:06;;;;;;;6.80;2.75;;;9.10;85.30;;;;;;5040943;28;20447;-68
2023/12/12 08:26:40;;;;;;;4.65;2.75;;;9.10;85.30;;;;;;5043624;28;20029;-68
2023/12/12 08:29:06;;;;;;;3.10;2.80;;;9.20;85.30;;;;;;5048805;28;20091;-69
2023/12/12 08:31:32;;;;;;;8.07;2.53;;;9.20;85.30;;;;;;5049812;28;20559;-69
2023/12/12 08:33:57;;;;;;;11.73;2.85;;;9.20;85.30;;;;;;5045890;28;20025;-68
2023/12/12 08:36:24;;;;;;;6.90;2.30;;;9.30;85.30;;;;;;5053756;28;20036;-67
2023/12/12 08:38:51;;;;;;;3.80;2.50;;;9.30;85.30;;;;;;5047946;28;20483;-67
2023/12/12 08:41:17;;;;;;;8.48;4.05;;;9.40;85.40;;;;;;5039030;28;20029;-68
2023/12/12 08:43:42;;;;;;;6.43;3.78;;;9.40;85.30;;;;;;5042753;28;20403;-68
2023/12/12 08:46:08;;;;;;;6.20;3.90;;;9.40;85.40;;;;;;5039333;28;20037;-59
2023/12/12 08:48:34;;;;;;;7.05;2.85;;;9.40;85.40;;;;;;5055621;28;20480;-60
2023/12/12 08:50:59;;;;;;;6.10;2.72;;;9.50;85.50;;;;;;5055754;28;20045;-61
2023/12/12 08:53:26;;;;;;;5.50;2.42;;;9.50;85.50;;;;;;5057695;28;20136;-61
2023/12/12 08:55:54;;;;;;;4.47;2.63;;;9.50;85.50;;;;;;5056176;28;20020;-59
2023/12/12 08:58:20;;;;;;;5.22;2.45;;;9.50;85.40;;;;;;5053051;28;20115;-58
2023/12/12 09:00:46;;;;;;;6.05;2.45;;;9.50;85.50;;;;;;5042490;28;20029;-59
2023/12/12 09:03:12;;;;;;;6.57;2.67;;;9.60;85.50;;;;;;5043411;28;20033;-59
2023/12/12 09:05:38;;;;;;;7.55;3.47;;;9.60;85.50;;;;;;5048564;28;20052;-59
2023/12/12 09:08:03;;;;;;;6.72;2.92;;;9.60;85.60;;;;;;5054993;28;20041;-70
2023/12/12 09:10:29;;;;;;;9.73;3.00;;;9.60;85.60;;;;;;5050178;28;20083;-69
2023/12/12 09:12:55;;;;;;;4.35;3.00;;;9.60;85.70;;;;;;5052543;28;20032;-69
2023/12/12 09:15:20;;;;;;;8.38;3.45;;;9.60;85.70;;;;;;5052797;28;20140;-69
2023/12/12 09:17:46;;;;;;;5.30;1.88;;;9.70;85.80;;;;;;5052638;28;20449;-69
2023/12/12 09:20:12;;;;;;;6.00;2.63;;;9.70;85.80;;;;;;5050719;28;20112;-69
2023/12/12 09:22:37;;;;;;;8.90;3.17;;;9.60;85.80;;;;;;5036017;28;20080;-69
2023/12/12 09:25:04;;;;;;;35.45;4.07;;;9.70;85.90;;;;;;5045765;28;20476;-69
2023/12/12 09:27:30;;;;;;;3.08;2.58;;;9.70;85.80;;;;;;5042858;28;20037;-58
2023/12/12 09:29:56;;;;;;;5.13;2.45;;;9.80;85.90;;;;;;5047991;28;20373;-58
2023/12/12 09:32:21;;;;;;;7.75;2.80;;;9.80;85.80;;;;;;5041088;28;20036;-59
2023/12/12 09:34:47;;;;;;;7.15;3.40;;;9.90;85.90;;;;;;5058799;28;20095;-58
2023/12/12 09:37:13;;;;;;;7.55;2.83;;;9.90;85.90;;;;;;5050939;28;20086;-59
2023/12/12 09:39:38;;;;;;;4.22;2.38;;;9.90;85.90;;;;;;5048890;28;20029;-58
2023/12/12 09:42:11;;;;;;;3.13;2.40;;;9.90;85.90;;;;;;5051621;28;20029;-58
2023/12/12 09:44:41;;;;;;;6.18;3.22;;;9.90;85.90;;;;;;5056696;28;20392;-58
2023/12/12 09:47:08;;;;;;;4.13;1.88;;;10.00;86.00;;;;;;5051301;28;20383;-69
2023/12/12 09:49:35;;;;;;;4.63;2.13;;;10.00;85.90;;;;;;5043340;28;20116;-69
2023/12/12 09:52:01;;;;;;;9.20;2.97;;;10.00;85.90;;;;;;5044441;28;20025;-69
2023/12/12 09:54:28;;;;;;;2.97;2.08;;;10.10;85.90;;;;;;5053841;28;20029;-69
2023/12/12 09:56:54;;;;;;;7.05;2.38;;;10.10;86.00;;;;;;5049146;28;20041;-69
2023/12/12 09:59:20;;;;;;;5.95;2.42;;;10.20;86.10;;;;;;5050799;28;20029;-69
2023/12/12 10:01:49;;;;;;;4.18;2.15;;;10.20;86.10;;;;;;5056184;28;20041;-69
2023/12/12 10:04:18;;;;;;;5.45;2.70;;;10.20;86.10;;;;;;5050850;28;20029;-69
2023/12/12 10:06:53;;;;;;;3.83;2.35;;;10.30;86.10;;;;;;5051756;28;20040;-69
2023/12/12 10:09:21;;;;;;;3.35;1.88;;;10.40;86.10;;;;;;5057907;28;20361;-69
2023/12/12 10:11:46;;;;;;;2.10;1.75;;;10.50;85.90;;;;;;5054993;28;20116;-69
2023/12/12 10:14:12;;;;;;;3.63;2.65;;;10.60;85.80;;;;;;5052800;28;20119;-69
2023/12/12 10:16:38;;;;;;;7.47;2.67;;;10.60;85.80;;;;;;5052606;28;20481;-69
2023/12/12 10:19:04;;;;;;;5.20;2.33;;;10.70;85.70;;;;;;5040176;28;20055;-69
2023/12/12 10:21:30;;;;;;;3.80;2.53;;;10.70;85.70;;;;;;5044355;28;20132;-70
2023/12/12 10:23:56;;;;;;;3.38;1.92;;;10.80;85.70;;;;;;5041645;28;20036;-69
2023/12/12 10:26:32;;;;;;;3.33;2.13;;;10.80;85.60;;;;;;5060226;28;20387;-69
2023/12/12 10:28:59;;;;;;;6.85;2.35;;;10.90;85.60;;;;;;5059629;28;21405;-69
2023/12/12 10:31:25;;;;;;;5.32;2.70;;;11.00;86.10;;;;;;5060330;28;20025;-70
2023/12/12 10:33:56;;;;;;;4.32;2.47;;;11.00;85.50;;;;;;5041145;28;20029;-59
2023/12/12 10:36:22;;;;;;;5.57;2.83;;;11.10;85.60;;;;;;5042118;28;20396;-59
2023/12/12 10:38:48;;;;;;;12.55;2.95;;;11.10;85.60;;;;;;5041724;28;20033;-60
2023/12/12 10:41:15;;;;;;;6.53;2.75;;;11.30;85.50;;;;;;5048849;28;20037;-60
2023/12/12 10:43:43;;;;;;;6.35;2.40;;;11.30;85.40;;;;;;5039768;28;20033;-70
2023/12/12 10:46:12;;;;;;;4.60;2.17;;;11.40;85.30;;;;;;5042710;28;20123;-69
2023/12/12 10:48:45;;;;;;;5.40;1.55;;;11.50;85.40;;;;;;5039404;28;20040;-60
2023/12/12 10:51:12;;;;;;;13.02;1.88;;;11.60;85.40;;;;;;5045203;28;20024;-59
2023/12/12 10:53:44;;;;;;;4.57;1.52;;;11.80;85.20;;;;;;5042365;28;20037;-60
2023/12/12 10:56:11;;;;;;;8.73;2.83;;;12.20;84.70;;;;;;5045375;28;20120;-59
2023/12/12 10:58:39;;;;;;;9.82;1.77;;;12.50;83.90;;;;;;5039083;28;20083;-59
2023/12/12 11:01:06;;;;;;;6.00;1.48;;;12.50;83.60;;;;;;5044810;28;20067;-59
2023/12/12 11:03:35;;;;;;;4.65;2.70;;;12.40;83.70;;;;;;5031026;28;20116;-60
2023/12/12 11:06:01;;;;;;;13.15;2.35;;;12.30;83.90;;;;;;5042279;28;20466;-69
2023/12/12 11:08:29;;;;;;;7.43;1.63;;;12.20;84.30;;;;;;5059277;28;20017;-70
2023/12/12 11:10:55;;;;;;;3.88;2.15;;;12.10;84.60;;;;;;5050436;28;20029;-60
2023/12/12 11:13:26;;;;;;;4.53;1.65;;;12.10;84.80;;;;;;5041507;28;20059;-60
2023/12/12 11:15:53;;;;;;;1.95;1.30;;;12.10;85.00;;;;;;5037233;28;20086;-60
2023/12/12 11:18:20;;;;;;;3.50;1.35;;;12.10;85.10;;;;;;5041690;28;20132;-60
2023/12/12 11:20:47;;;;;;;5.13;2.72;;;12.20;85.00;;;;;;5037641;28;20041;-60
2023/12/12 11:23:40;;;;;;;2.88;1.40;;;12.30;84.80;;;;;;5043240;28;20107;-59
2023/12/12 11:26:06;;;;;;;3.10;1.92;;;12.40;84.70;;;;;;5035136;28;20658;-60
2023/12/12 11:28:35;;;;;;;3.20;1.80;;;12.50;84.40;;;;;;5038590;28;20112;-59
2023/12/12 11:31:01;;;;;;;4.72;2.45;;;12.60;84.10;;;;;;5042099;28;20029;-60
2023/12/12 11:33:28;;;;;;;3.95;1.95;;;12.80;84.20;;;;;;5045382;28;20068;-60
2023/12/12 11:35:54;;;;;;;3.88;2.10;;;13.40;84.10;;;;;;5046059;28;20026;-59
2023/12/12 11:38:29;;;;;;;4.97;1.40;;;14.60;82.40;;;;;;5040979;28;20094;-60
2023/12/12 11:41:14;;;;;;;6.97;2.55;;;16.90;78.70;;;;;;5034822;28;20356;-60
2023/12/12 11:43:41;;;;;;;2.85;1.45;;;19.70;72.00;;;;;;5028864;28;20064;-60
2023/12/12 11:46:15;;;;;;;3.47;1.73;;;21.90;67.10;;;;;;5041348;28;20037;-61
2023/12/12 11:48:41;;;;;;;5.05;2.05;;;23.20;62.50;;;;;;5042680;28;20029;-61
2023/12/12 11:51:35;;;;;;;3.15;1.75;;;22.60;62.20;;;;;;5039095;28;20128;-60
2023/12/12 11:54:04;;;;;;;5.60;1.92;;;21.20;65.40;;;;;;5047951;28;20122;-60
2023/12/12 11:56:30;;;;;;;5.03;1.80;;;19.70;68.10;;;;;;5037803;28;20036;-61
2023/12/12 11:58:56;;;;;;;9.90;2.00;;;18.50;70.80;;;;;;5041610;28;20037;-60
2023/12/12 12:01:23;;;;;;;4.13;1.80;;;17.40;72.50;;;;;;5035382;28;20038;-60
2023/12/12 12:03:49;;;;;;;3.15;1.80;;;16.60;74.60;;;;;;5038453;28;20989;-60
2023/12/12 12:06:15;;;;;;;4.43;1.13;;;15.90;76.10;;;;;;5045735;28;20049;-60
2023/12/12 12:08:41;;;;;;;1.40;1.10;;;15.40;77.20;;;;;;5041481;28;20541;-60
2023/12/12 12:11:06;;;;;;;4.95;1.25;;;15.10;77.80;;;;;;5038636;28;20032;-61
2023/12/12 12:13:42;;;;;;;2.42;1.30;;;14.70;78.40;;;;;;5044181;28;20033;-60
2023/12/12 12:16:09;;;;;;;2.35;0.93;;;14.40;78.90;;;;;;5041859;28;20036;-60
2023/12/12 12:18:35;;;;;;;4.13;1.50;;;14.10;79.30;;;;;;5042204;28;20032;-60
2023/12/12 12:21:07;;;;;;;2.95;1.13;;;13.90;79.80;;;;;;5046736;28;20052;-60
2023/12/12 12:23:40;;;;;;;2.38;1.65;;;13.80;80.20;;;;;;5043145;28;20051;-60
2023/12/12 12:26:06;;;;;;;3.53;1.40;;;14.20;80.50;;;;;;5039929;28;20033;-60
2023/12/12 12:28:35;;;;;;;3.35;1.38;;;15.00;79.10;;;;;;5046323;28;20029;-60
2023/12/12 12:31:03;;;;;;;4.50;1.73;;;16.00;77.50;;;;;;5044850;28;20035;-60
2023/12/12 12:33:38;;;;;;;1.85;1.30;;;17.00;75.50;;;;;;5040200;28;20032;-71
2023/12/12 12:36:05;;;;;;;8.38;2.30;;;18.80;72.70;;;;;;5047583;28;20371;-71
2023/12/12 12:38:32;;;;;;;4.32;1.23;;;20.70;68.80;;;;;;5049925;28;20034;-71
2023/12/12 12:40:58;;;;;;;1.67;1.55;;;21.40;65.40;;;;;;5052519;28;20400;-71
2023/12/12 12:43:24;;;;;;;7.93;1.40;;;21.00;65.00;;;;;;5049043;28;20474;-71
2023/12/12 12:45:52;;;;;;;3.35;1.42;;;20.00;66.40;;;;;;5045232;28;20037;-71
2023/12/12 12:48:18;;;;;;;1.75;1.25;;;18.90;68.20;;;;;;5051133;28;20086;-71
2023/12/12 12:50:46;;;;;;;3.28;1.58;;;18.00;70.10;;;;;;5052446;28;20066;-71